sensor_id;sensor_type;location;lat;lon;timestamp;P1;durP1;ratioP1;P2;durP2;ratioP2
27893;SDS011;15240;50.812;4.792;2023-08-06T00:00:28;7.83;;;1.80;;
27893;SDS011;15240;50.812;4.792;2023-08-06T00:02:54;4.23;;;1.60;;
27893;SDS011;15240;50.812;4.792;2023-08-06T00:05:22;6.93;;;1.77;;
27893;SDS011;15240;50.812;4.792;2023-08-06T00:07:48;5.83;;;1.77;;
27893;SDS011;15240;50.812;4.792;2023-08-06T00:10:14;5.73;;;1.87;;
27893;SDS011;15240;50.812;4.792;2023-08-06T00:12:40;4.90;;;1.53;;
27893;SDS011;15240;50.812;4.792;2023-08-06T00:15:06;5.50;;;1.70;;
27893;SDS011;15240;50.812;4.792;2023-08-06T00:17:34;4.30;;;1.53;;
27893;SDS011;15240;50.812;4.792;2023-08-06T00:20:00;5.30;;;1.73;;
27893;SDS011;15240;50.812;4.792;2023-08-06T00:22:37;4.77;;;1.53;;
27893;SDS011;15240;50.812;4.792;2023-08-06T00:25:04;4.27;;;1.63;;
27893;SDS011;15240;50.812;4.792;2023-08-06T00:27:30;4.57;;;1.70;;
27893;SDS011;15240;50.812;4.792;2023-08-06T00:29:57;7.73;;;1.93;;
27893;SDS011;15240;50.812;4.792;2023-08-06T00:32:23;6.57;;;1.73;;
27893;SDS011;15240;50.812;4.792;2023-08-06T00:34:49;5.10;;;1.57;;
27893;SDS011;15240;50.812;4.792;2023-08-06T00:37:16;4.93;;;1.80;;
27893;SDS011;15240;50.812;4.792;2023-08-06T00:39:42;5.13;;;1.77;;
27893;SDS011;15240;50.812;4.792;2023-08-06T00:42:08;5.77;;;1.90;;
27893;SDS011;15240;50.812;4.792;2023-08-06T00:44:35;5.90;;;2.10;;
27893;SDS011;15240;50.812;4.792;2023-08-06T00:47:01;6.03;;;1.80;;
27893;SDS011;15240;50.812;4.792;2023-08-06T00:49:27;4.97;;;1.97;;
27893;SDS011;15240;50.812;4.792;2023-08-06T00:51:53;4.40;;;2.00;;
27893;SDS011;15240;50.812;4.792;2023-08-06T00:54:20;7.40;;;2.03;;
27893;SDS011;15240;50.812;4.792;2023-08-06T00:56:46;5.17;;;2.27;;
27893;SDS011;15240;50.812;4.792;2023-08-06T00:59:13;5.50;;;2.57;;
27893;SDS011;15240;50.812;4.792;2023-08-06T01:01:39;5.40;;;2.50;;
27893;SDS011;15240;50.812;4.792;2023-08-06T01:04:06;7.60;;;2.40;;
27893;SDS011;15240;50.812;4.792;2023-08-06T01:08:58;10.00;;;2.93;;
27893;SDS011;15240;50.812;4.792;2023-08-06T01:11:30;4.73;;;2.90;;
27893;SDS011;15240;50.812;4.792;2023-08-06T01:13:59;8.17;;;3.53;;
27893;SDS011;15240;50.812;4.792;2023-08-06T01:16:28;6.97;;;2.93;;
27893;SDS011;15240;50.812;4.792;2023-08-06T01:18:54;8.43;;;3.17;;
27893;SDS011;15240;50.812;4.792;2023-08-06T01:21:20;9.23;;;3.10;;
27893;SDS011;15240;50.812;4.792;2023-08-06T01:23:47;7.87;;;3.43;;
27893;SDS011;15240;50.812;4.792;2023-08-06T01:31:37;9.83;;;4.23;;
27893;SDS011;15240;50.812;4.792;2023-08-06T01:34:09;8.63;;;4.63;;
27893;SDS011;15240;50.812;4.792;2023-08-06T01:36:37;8.73;;;4.53;;
27893;SDS011;15240;50.812;4.792;2023-08-06T01:39:04;11.57;;;5.13;;
27893;SDS011;15240;50.812;4.792;2023-08-06T01:41:30;12.60;;;5.00;;
27893;SDS011;15240;50.812;4.792;2023-08-06T01:43:56;11.87;;;5.20;;
27893;SDS011;15240;50.812;4.792;2023-08-06T01:46:22;10.00;;;4.57;;
27893;SDS011;15240;50.812;4.792;2023-08-06T01:48:48;11.77;;;5.20;;
27893;SDS011;15240;50.812;4.792;2023-08-06T01:51:14;11.57;;;6.13;;
27893;SDS011;15240;50.812;4.792;2023-08-06T01:53:40;10.83;;;5.47;;
27893;SDS011;15240;50.812;4.792;2023-08-06T01:56:06;10.73;;;5.97;;
27893;SDS011;15240;50.812;4.792;2023-08-06T01:58:32;12.17;;;6.27;;
27893;SDS011;15240;50.812;4.792;2023-08-06T02:00:58;14.27;;;6.53;;
27893;SDS011;15240;50.812;4.792;2023-08-06T02:03:24;13.60;;;7.33;;
27893;SDS011;15240;50.812;4.792;2023-08-06T02:05:51;17.97;;;8.40;;
27893;SDS011;15240;50.812;4.792;2023-08-06T02:08:17;15.43;;;8.13;;
27893;SDS011;15240;50.812;4.792;2023-08-06T02:10:44;15.10;;;7.90;;
27893;SDS011;15240;50.812;4.792;2023-08-06T02:13:10;17.77;;;8.60;;
27893;SDS011;15240;50.812;4.792;2023-08-06T02:15:41;22.33;;;10.00;;
27893;SDS011;15240;50.812;4.792;2023-08-06T02:18:08;19.77;;;9.50;;
27893;SDS011;15240;50.812;4.792;2023-08-06T02:20:34;20.67;;;10.03;;
27893;SDS011;15240;50.812;4.792;2023-08-06T02:23:00;20.30;;;10.03;;
27893;SDS011;15240;50.812;4.792;2023-08-06T02:25:26;18.70;;;10.10;;
27893;SDS011;15240;50.812;4.792;2023-08-06T02:27:52;22.93;;;10.90;;
27893;SDS011;15240;50.812;4.792;2023-08-06T02:30:18;16.87;;;9.37;;
27893;SDS011;15240;50.812;4.792;2023-08-06T02:32:44;21.60;;;10.27;;
27893;SDS011;15240;50.812;4.792;2023-08-06T02:35:10;18.40;;;10.17;;
27893;SDS011;15240;50.812;4.792;2023-08-06T02:37:36;19.80;;;10.23;;
27893;SDS011;15240;50.812;4.792;2023-08-06T02:40:02;18.23;;;10.50;;
27893;SDS011;15240;50.812;4.792;2023-08-06T02:42:28;17.33;;;10.20;;
27893;SDS011;15240;50.812;4.792;2023-08-06T02:44:55;17.43;;;10.33;;
27893;SDS011;15240;50.812;4.792;2023-08-06T02:47:21;18.47;;;9.80;;
27893;SDS011;15240;50.812;4.792;2023-08-06T02:49:47;17.53;;;9.73;;
27893;SDS011;15240;50.812;4.792;2023-08-06T02:52:13;18.57;;;9.97;;
27893;SDS011;15240;50.812;4.792;2023-08-06T02:54:39;13.60;;;9.47;;
27893;SDS011;15240;50.812;4.792;2023-08-06T02:57:06;17.90;;;9.33;;
27893;SDS011;15240;50.812;4.792;2023-08-06T02:59:32;17.00;;;8.40;;
27893;SDS011;15240;50.812;4.792;2023-08-06T03:01:58;16.20;;;8.87;;
27893;SDS011;15240;50.812;4.792;2023-08-06T03:04:24;15.33;;;8.23;;
27893;SDS011;15240;50.812;4.792;2023-08-06T03:06:51;17.83;;;7.90;;
27893;SDS011;15240;50.812;4.792;2023-08-06T03:09:17;14.97;;;8.50;;
27893;SDS011;15240;50.812;4.792;2023-08-06T03:11:43;16.47;;;8.80;;
27893;SDS011;15240;50.812;4.792;2023-08-06T03:14:09;16.10;;;9.10;;
27893;SDS011;15240;50.812;4.792;2023-08-06T03:16:35;14.10;;;8.30;;
27893;SDS011;15240;50.812;4.792;2023-08-06T03:19:01;16.67;;;8.27;;
27893;SDS011;15240;50.812;4.792;2023-08-06T03:21:27;14.47;;;7.97;;
27893;SDS011;15240;50.812;4.792;2023-08-06T03:23:54;13.60;;;7.27;;
27893;SDS011;15240;50.812;4.792;2023-08-06T03:26:20;15.33;;;8.33;;
27893;SDS011;15240;50.812;4.792;2023-08-06T03:28:46;15.17;;;7.10;;
27893;SDS011;15240;50.812;4.792;2023-08-06T03:31:12;16.10;;;7.47;;
27893;SDS011;15240;50.812;4.792;2023-08-06T03:33:38;15.97;;;8.30;;
27893;SDS011;15240;50.812;4.792;2023-08-06T03:36:05;15.30;;;7.10;;
27893;SDS011;15240;50.812;4.792;2023-08-06T03:38:31;13.60;;;7.03;;
27893;SDS011;15240;50.812;4.792;2023-08-06T03:40:57;15.87;;;7.17;;
27893;SDS011;15240;50.812;4.792;2023-08-06T03:43:23;16.03;;;7.70;;
27893;SDS011;15240;50.812;4.792;2023-08-06T03:45:49;14.23;;;7.43;;
27893;SDS011;15240;50.812;4.792;2023-08-06T03:48:15;19.97;;;7.77;;
27893;SDS011;15240;50.812;4.792;2023-08-06T03:50:41;16.00;;;8.47;;
27893;SDS011;15240;50.812;4.792;2023-08-06T03:53:09;18.60;;;8.40;;
27893;SDS011;15240;50.812;4.792;2023-08-06T03:55:35;15.83;;;7.97;;
27893;SDS011;15240;50.812;4.792;2023-08-06T03:58:01;13.00;;;8.67;;
27893;SDS011;15240;50.812;4.792;2023-08-06T04:00:27;16.40;;;8.10;;
27893;SDS011;15240;50.812;4.792;2023-08-06T04:02:53;22.20;;;9.03;;
27893;SDS011;15240;50.812;4.792;2023-08-06T04:05:20;19.20;;;9.17;;
27893;SDS011;15240;50.812;4.792;2023-08-06T04:07:47;18.03;;;9.87;;
27893;SDS011;15240;50.812;4.792;2023-08-06T04:10:13;21.40;;;10.33;;
27893;SDS011;15240;50.812;4.792;2023-08-06T04:12:39;22.47;;;10.20;;
27893;SDS011;15240;50.812;4.792;2023-08-06T04:15:05;22.27;;;10.53;;
27893;SDS011;15240;50.812;4.792;2023-08-06T04:17:32;20.70;;;10.90;;
27893;SDS011;15240;50.812;4.792;2023-08-06T04:19:58;27.67;;;12.40;;
27893;SDS011;15240;50.812;4.792;2023-08-06T04:22:24;30.57;;;13.97;;
27893;SDS011;15240;50.812;4.792;2023-08-06T04:24:50;29.70;;;13.73;;
27893;SDS011;15240;50.812;4.792;2023-08-06T04:27:17;31.73;;;14.67;;
27893;SDS011;15240;50.812;4.792;2023-08-06T04:29:43;30.53;;;14.03;;
27893;SDS011;15240;50.812;4.792;2023-08-06T04:32:09;30.93;;;14.53;;
27893;SDS011;15240;50.812;4.792;2023-08-06T04:34:36;32.23;;;15.07;;
27893;SDS011;15240;50.812;4.792;2023-08-06T04:37:02;36.23;;;15.27;;
27893;SDS011;15240;50.812;4.792;2023-08-06T04:39:29;34.30;;;15.30;;
27893;SDS011;15240;50.812;4.792;2023-08-06T04:41:55;36.60;;;16.67;;
27893;SDS011;15240;50.812;4.792;2023-08-06T04:44:25;36.20;;;16.77;;
27893;SDS011;15240;50.812;4.792;2023-08-06T04:46:51;39.10;;;15.67;;
27893;SDS011;15240;50.812;4.792;2023-08-06T04:49:21;29.37;;;14.30;;
27893;SDS011;15240;50.812;4.792;2023-08-06T04:51:47;22.27;;;11.47;;
27893;SDS011;15240;50.812;4.792;2023-08-06T04:54:13;14.83;;;7.13;;
27893;SDS011;15240;50.812;4.792;2023-08-06T04:56:40;9.73;;;5.03;;
27893;SDS011;15240;50.812;4.792;2023-08-06T04:59:06;7.23;;;4.43;;
27893;SDS011;15240;50.812;4.792;2023-08-06T05:01:32;5.13;;;2.60;;
27893;SDS011;15240;50.812;4.792;2023-08-06T05:03:58;4.20;;;1.53;;
27893;SDS011;15240;50.812;4.792;2023-08-06T05:06:24;3.17;;;1.27;;
27893;SDS011;15240;50.812;4.792;2023-08-06T05:08:50;2.60;;;1.30;;
27893;SDS011;15240;50.812;4.792;2023-08-06T05:11:16;4.03;;;1.17;;
27893;SDS011;15240;50.812;4.792;2023-08-06T05:13:42;2.90;;;1.53;;
27893;SDS011;15240;50.812;4.792;2023-08-06T05:16:08;3.20;;;1.20;;
27893;SDS011;15240;50.812;4.792;2023-08-06T05:18:34;3.83;;;1.60;;
27893;SDS011;15240;50.812;4.792;2023-08-06T05:21:02;4.67;;;2.80;;
27893;SDS011;15240;50.812;4.792;2023-08-06T05:23:28;5.33;;;4.03;;
27893;SDS011;15240;50.812;4.792;2023-08-06T05:25:55;7.10;;;4.87;;
27893;SDS011;15240;50.812;4.792;2023-08-06T05:28:21;12.40;;;7.83;;
27893;SDS011;15240;50.812;4.792;2023-08-06T05:30:47;13.63;;;7.80;;
27893;SDS011;15240;50.812;4.792;2023-08-06T05:33:13;14.20;;;8.30;;
27893;SDS011;15240;50.812;4.792;2023-08-06T05:35:40;12.63;;;8.93;;
27893;SDS011;15240;50.812;4.792;2023-08-06T05:38:07;18.07;;;9.60;;
27893;SDS011;15240;50.812;4.792;2023-08-06T05:40:36;15.10;;;8.70;;
27893;SDS011;15240;50.812;4.792;2023-08-06T05:43:02;18.47;;;8.87;;
27893;SDS011;15240;50.812;4.792;2023-08-06T05:45:28;14.33;;;8.73;;
27893;SDS011;15240;50.812;4.792;2023-08-06T05:47:54;13.40;;;8.37;;
27893;SDS011;15240;50.812;4.792;2023-08-06T05:50:22;12.27;;;7.67;;
27893;SDS011;15240;50.812;4.792;2023-08-06T05:52:49;11.30;;;7.07;;
27893;SDS011;15240;50.812;4.792;2023-08-06T05:55:15;12.47;;;6.43;;
27893;SDS011;15240;50.812;4.792;2023-08-06T05:57:41;10.60;;;5.80;;
27893;SDS011;15240;50.812;4.792;2023-08-06T06:00:07;10.77;;;5.50;;
27893;SDS011;15240;50.812;4.792;2023-08-06T06:02:33;11.27;;;5.47;;
27893;SDS011;15240;50.812;4.792;2023-08-06T06:05:00;11.23;;;5.03;;
27893;SDS011;15240;50.812;4.792;2023-08-06T06:07:26;7.80;;;4.13;;
27893;SDS011;15240;50.812;4.792;2023-08-06T06:09:52;8.80;;;4.60;;
27893;SDS011;15240;50.812;4.792;2023-08-06T06:12:18;9.57;;;4.57;;
27893;SDS011;15240;50.812;4.792;2023-08-06T06:14:44;8.37;;;4.60;;
27893;SDS011;15240;50.812;4.792;2023-08-06T06:17:10;12.00;;;4.57;;
27893;SDS011;15240;50.812;4.792;2023-08-06T06:19:36;10.77;;;4.43;;
27893;SDS011;15240;50.812;4.792;2023-08-06T06:22:02;11.83;;;4.70;;
27893;SDS011;15240;50.812;4.792;2023-08-06T06:24:28;10.43;;;4.73;;
27893;SDS011;15240;50.812;4.792;2023-08-06T06:26:55;10.90;;;4.97;;
27893;SDS011;15240;50.812;4.792;2023-08-06T06:29:21;11.27;;;4.67;;
27893;SDS011;15240;50.812;4.792;2023-08-06T06:31:47;12.10;;;4.63;;
27893;SDS011;15240;50.812;4.792;2023-08-06T06:34:13;14.70;;;5.10;;
27893;SDS011;15240;50.812;4.792;2023-08-06T06:36:39;10.93;;;5.10;;
27893;SDS011;15240;50.812;4.792;2023-08-06T06:39:05;13.90;;;4.80;;
27893;SDS011;15240;50.812;4.792;2023-08-06T06:41:31;9.53;;;4.77;;
27893;SDS011;15240;50.812;4.792;2023-08-06T06:43:58;12.27;;;4.57;;
27893;SDS011;15240;50.812;4.792;2023-08-06T06:46:24;9.73;;;4.30;;
27893;SDS011;15240;50.812;4.792;2023-08-06T06:48:50;10.20;;;4.63;;
27893;SDS011;15240;50.812;4.792;2023-08-06T06:51:16;11.77;;;4.57;;
27893;SDS011;15240;50.812;4.792;2023-08-06T06:53:42;12.27;;;4.40;;
27893;SDS011;15240;50.812;4.792;2023-08-06T06:56:09;13.30;;;4.90;;
27893;SDS011;15240;50.812;4.792;2023-08-06T06:58:35;12.60;;;4.30;;
27893;SDS011;15240;50.812;4.792;2023-08-06T07:01:03;11.67;;;4.67;;
27893;SDS011;15240;50.812;4.792;2023-08-06T07:03:29;12.63;;;4.97;;
27893;SDS011;15240;50.812;4.792;2023-08-06T07:05:59;13.37;;;4.67;;
27893;SDS011;15240;50.812;4.792;2023-08-06T07:08:25;13.73;;;4.83;;
27893;SDS011;15240;50.812;4.792;2023-08-06T07:10:51;12.97;;;4.60;;
27893;SDS011;15240;50.812;4.792;2023-08-06T07:13:27;13.77;;;4.90;;
27893;SDS011;15240;50.812;4.792;2023-08-06T07:15:54;12.23;;;5.00;;
27893;SDS011;15240;50.812;4.792;2023-08-06T07:18:21;11.70;;;4.70;;
27893;SDS011;15240;50.812;4.792;2023-08-06T07:20:49;8.70;;;4.20;;
27893;SDS011;15240;50.812;4.792;2023-08-06T07:23:16;14.93;;;4.60;;
27893;SDS011;15240;50.812;4.792;2023-08-06T07:25:42;12.20;;;4.80;;
27893;SDS011;15240;50.812;4.792;2023-08-06T07:28:09;11.70;;;4.53;;
27893;SDS011;15240;50.812;4.792;2023-08-06T07:30:38;12.70;;;4.97;;
27893;SDS011;15240;50.812;4.792;2023-08-06T07:33:04;12.20;;;4.50;;
27893;SDS011;15240;50.812;4.792;2023-08-06T07:35:30;11.57;;;4.50;;
27893;SDS011;15240;50.812;4.792;2023-08-06T07:37:57;12.67;;;4.53;;
27893;SDS011;15240;50.812;4.792;2023-08-06T07:40:23;12.43;;;4.47;;
27893;SDS011;15240;50.812;4.792;2023-08-06T07:42:50;11.57;;;4.03;;
27893;SDS011;15240;50.812;4.792;2023-08-06T07:45:16;10.93;;;4.00;;
27893;SDS011;15240;50.812;4.792;2023-08-06T07:47:42;13.27;;;4.57;;
27893;SDS011;15240;50.812;4.792;2023-08-06T07:50:08;12.63;;;4.30;;
27893;SDS011;15240;50.812;4.792;2023-08-06T07:52:34;13.87;;;4.87;;
27893;SDS011;15240;50.812;4.792;2023-08-06T07:55:00;16.77;;;4.37;;
27893;SDS011;15240;50.812;4.792;2023-08-06T07:57:30;11.10;;;3.77;;
27893;SDS011;15240;50.812;4.792;2023-08-06T07:59:56;8.10;;;3.30;;
27893;SDS011;15240;50.812;4.792;2023-08-06T08:02:22;11.97;;;3.30;;
27893;SDS011;15240;50.812;4.792;2023-08-06T08:04:49;7.17;;;2.20;;
27893;SDS011;15240;50.812;4.792;2023-08-06T08:07:15;11.33;;;2.10;;
27893;SDS011;15240;50.812;4.792;2023-08-06T08:09:41;12.33;;;2.03;;
27893;SDS011;15240;50.812;4.792;2023-08-06T08:12:07;10.97;;;2.33;;
27893;SDS011;15240;50.812;4.792;2023-08-06T08:14:33;10.17;;;2.30;;
27893;SDS011;15240;50.812;4.792;2023-08-06T08:17:04;12.03;;;2.10;;
27893;SDS011;15240;50.812;4.792;2023-08-06T08:19:33;12.17;;;2.10;;
27893;SDS011;15240;50.812;4.792;2023-08-06T08:21:59;7.33;;;1.67;;
27893;SDS011;15240;50.812;4.792;2023-08-06T08:24:25;11.87;;;2.37;;
27893;SDS011;15240;50.812;4.792;2023-08-06T08:26:51;10.17;;;2.40;;
27893;SDS011;15240;50.812;4.792;2023-08-06T08:29:19;11.57;;;2.03;;
27893;SDS011;15240;50.812;4.792;2023-08-06T08:31:45;9.27;;;2.43;;
27893;SDS011;15240;50.812;4.792;2023-08-06T08:34:14;9.57;;;2.37;;
27893;SDS011;15240;50.812;4.792;2023-08-06T08:36:40;13.43;;;2.30;;
27893;SDS011;15240;50.812;4.792;2023-08-06T08:39:06;13.73;;;2.57;;
27893;SDS011;15240;50.812;4.792;2023-08-06T08:41:33;9.93;;;2.27;;
27893;SDS011;15240;50.812;4.792;2023-08-06T08:43:59;8.40;;;2.20;;
27893;SDS011;15240;50.812;4.792;2023-08-06T08:46:31;7.60;;;2.03;;
27893;SDS011;15240;50.812;4.792;2023-08-06T08:48:58;9.20;;;2.30;;
27893;SDS011;15240;50.812;4.792;2023-08-06T08:51:25;6.90;;;2.10;;
27893;SDS011;15240;50.812;4.792;2023-08-06T08:53:53;11.63;;;2.20;;
27893;SDS011;15240;50.812;4.792;2023-08-06T08:56:23;7.40;;;1.80;;
27893;SDS011;15240;50.812;4.792;2023-08-06T08:58:49;10.13;;;1.77;;
27893;SDS011;15240;50.812;4.792;2023-08-06T09:01:18;8.33;;;1.87;;
27893;SDS011;15240;50.812;4.792;2023-08-06T09:03:44;5.80;;;1.50;;
27893;SDS011;15240;50.812;4.792;2023-08-06T09:06:11;5.30;;;1.60;;
27893;SDS011;15240;50.812;4.792;2023-08-06T09:08:51;3.70;;;1.40;;
27893;SDS011;15240;50.812;4.792;2023-08-06T09:11:18;5.80;;;1.60;;
27893;SDS011;15240;50.812;4.792;2023-08-06T09:13:45;7.43;;;1.63;;
27893;SDS011;15240;50.812;4.792;2023-08-06T09:16:11;6.63;;;1.60;;
27893;SDS011;15240;50.812;4.792;2023-08-06T09:18:38;9.23;;;1.70;;
27893;SDS011;15240;50.812;4.792;2023-08-06T09:21:05;7.57;;;2.00;;
27893;SDS011;15240;50.812;4.792;2023-08-06T09:23:31;6.40;;;1.63;;
27893;SDS011;15240;50.812;4.792;2023-08-06T09:25:58;7.43;;;1.80;;
27893;SDS011;15240;50.812;4.792;2023-08-06T09:28:24;9.57;;;2.03;;
27893;SDS011;15240;50.812;4.792;2023-08-06T09:30:52;7.23;;;1.70;;
27893;SDS011;15240;50.812;4.792;2023-08-06T09:33:20;7.23;;;1.87;;
27893;SDS011;15240;50.812;4.792;2023-08-06T09:35:48;6.57;;;1.60;;
27893;SDS011;15240;50.812;4.792;2023-08-06T09:38:15;6.80;;;1.57;;
27893;SDS011;15240;50.812;4.792;2023-08-06T09:40:41;10.40;;;1.80;;
27893;SDS011;15240;50.812;4.792;2023-08-06T09:43:07;6.00;;;1.60;;
27893;SDS011;15240;50.812;4.792;2023-08-06T09:45:36;9.50;;;1.97;;
27893;SDS011;15240;50.812;4.792;2023-08-06T09:48:03;7.10;;;2.00;;
27893;SDS011;15240;50.812;4.792;2023-08-06T09:50:30;7.17;;;1.70;;
27893;SDS011;15240;50.812;4.792;2023-08-06T09:52:57;8.97;;;1.87;;
27893;SDS011;15240;50.812;4.792;2023-08-06T09:55:24;7.53;;;1.60;;
27893;SDS011;15240;50.812;4.792;2023-08-06T09:57:53;9.97;;;1.60;;
27893;SDS011;15240;50.812;4.792;2023-08-06T10:00:19;5.57;;;1.37;;
27893;SDS011;15240;50.812;4.792;2023-08-06T10:02:46;7.37;;;1.57;;
27893;SDS011;15240;50.812;4.792;2023-08-06T10:05:14;6.10;;;1.67;;
27893;SDS011;15240;50.812;4.792;2023-08-06T10:07:42;4.33;;;1.50;;
27893;SDS011;15240;50.812;4.792;2023-08-06T10:10:08;4.70;;;1.63;;
27893;SDS011;15240;50.812;4.792;2023-08-06T10:12:43;5.50;;;1.50;;
27893;SDS011;15240;50.812;4.792;2023-08-06T10:15:11;8.07;;;1.70;;
27893;SDS011;15240;50.812;4.792;2023-08-06T10:17:39;5.77;;;1.70;;
27893;SDS011;15240;50.812;4.792;2023-08-06T10:20:06;5.30;;;1.50;;
27893;SDS011;15240;50.812;4.792;2023-08-06T10:22:33;5.80;;;1.80;;
27893;SDS011;15240;50.812;4.792;2023-08-06T10:24:59;6.23;;;1.73;;
27893;SDS011;15240;50.812;4.792;2023-08-06T10:32:46;5.93;;;1.60;;
27893;SDS011;15240;50.812;4.792;2023-08-06T10:37:59;7.83;;;1.80;;
27893;SDS011;15240;50.812;4.792;2023-08-06T10:40:25;5.03;;;1.63;;
27893;SDS011;15240;50.812;4.792;2023-08-06T10:42:52;4.93;;;1.50;;
27893;SDS011;15240;50.812;4.792;2023-08-06T10:45:19;4.67;;;1.40;;
27893;SDS011;15240;50.812;4.792;2023-08-06T10:47:45;5.77;;;1.80;;
27893;SDS011;15240;50.812;4.792;2023-08-06T10:50:12;5.97;;;1.80;;
27893;SDS011;15240;50.812;4.792;2023-08-06T10:52:41;6.30;;;1.80;;
27893;SDS011;15240;50.812;4.792;2023-08-06T10:55:07;6.03;;;1.77;;
27893;SDS011;15240;50.812;4.792;2023-08-06T10:57:34;5.93;;;1.70;;
27893;SDS011;15240;50.812;4.792;2023-08-06T11:00:00;7.40;;;1.80;;
27893;SDS011;15240;50.812;4.792;2023-08-06T11:02:27;7.47;;;1.90;;
27893;SDS011;15240;50.812;4.792;2023-08-06T11:04:53;5.90;;;1.73;;
27893;SDS011;15240;50.812;4.792;2023-08-06T11:07:19;6.17;;;1.70;;
27893;SDS011;15240;50.812;4.792;2023-08-06T11:09:49;7.67;;;1.77;;
27893;SDS011;15240;50.812;4.792;2023-08-06T11:12:19;6.97;;;1.80;;
27893;SDS011;15240;50.812;4.792;2023-08-06T11:14:49;8.57;;;1.90;;
27893;SDS011;15240;50.812;4.792;2023-08-06T11:17:15;8.07;;;2.20;;
27893;SDS011;15240;50.812;4.792;2023-08-06T11:19:41;10.67;;;2.17;;
27893;SDS011;15240;50.812;4.792;2023-08-06T11:22:07;8.77;;;1.90;;
27893;SDS011;15240;50.812;4.792;2023-08-06T11:24:34;5.87;;;1.47;;
27893;SDS011;15240;50.812;4.792;2023-08-06T11:27:00;6.90;;;1.70;;
27893;SDS011;15240;50.812;4.792;2023-08-06T11:29:26;9.10;;;1.90;;
27893;SDS011;15240;50.812;4.792;2023-08-06T11:31:52;8.30;;;1.80;;
27893;SDS011;15240;50.812;4.792;2023-08-06T11:34:18;6.80;;;2.13;;
27893;SDS011;15240;50.812;4.792;2023-08-06T11:36:45;10.00;;;2.30;;
27893;SDS011;15240;50.812;4.792;2023-08-06T11:39:11;6.97;;;2.00;;
27893;SDS011;15240;50.812;4.792;2023-08-06T11:41:37;5.20;;;2.20;;
27893;SDS011;15240;50.812;4.792;2023-08-06T11:44:04;11.63;;;2.40;;
27893;SDS011;15240;50.812;4.792;2023-08-06T11:46:49;6.70;;;2.00;;
27893;SDS011;15240;50.812;4.792;2023-08-06T11:49:16;6.67;;;2.13;;
27893;SDS011;15240;50.812;4.792;2023-08-06T11:51:45;10.60;;;2.80;;
27893;SDS011;15240;50.812;4.792;2023-08-06T11:54:11;5.67;;;2.00;;
27893;SDS011;15240;50.812;4.792;2023-08-06T11:56:37;6.30;;;1.77;;
27893;SDS011;15240;50.812;4.792;2023-08-06T11:59:03;5.23;;;1.70;;
27893;SDS011;15240;50.812;4.792;2023-08-06T12:01:29;6.53;;;1.80;;
27893;SDS011;15240;50.812;4.792;2023-08-06T12:03:58;6.53;;;1.80;;
27893;SDS011;15240;50.812;4.792;2023-08-06T12:06:28;5.73;;;1.40;;
27893;SDS011;15240;50.812;4.792;2023-08-06T12:08:54;4.30;;;1.40;;
27893;SDS011;15240;50.812;4.792;2023-08-06T12:11:23;4.70;;;1.40;;
27893;SDS011;15240;50.812;4.792;2023-08-06T12:13:52;4.40;;;1.40;;
27893;SDS011;15240;50.812;4.792;2023-08-06T12:16:18;7.63;;;1.37;;
27893;SDS011;15240;50.812;4.792;2023-08-06T12:18:47;6.20;;;1.63;;
27893;SDS011;15240;50.812;4.792;2023-08-06T12:21:14;6.87;;;1.77;;
27893;SDS011;15240;50.812;4.792;2023-08-06T12:23:40;7.17;;;1.70;;
27893;SDS011;15240;50.812;4.792;2023-08-06T12:26:07;6.27;;;1.60;;
27893;SDS011;15240;50.812;4.792;2023-08-06T12:28:33;5.87;;;1.80;;
27893;SDS011;15240;50.812;4.792;2023-08-06T12:30:59;7.60;;;1.50;;
27893;SDS011;15240;50.812;4.792;2023-08-06T12:33:25;6.27;;;1.40;;
27893;SDS011;15240;50.812;4.792;2023-08-06T12:35:51;8.00;;;1.70;;
27893;SDS011;15240;50.812;4.792;2023-08-06T12:38:19;6.33;;;1.70;;
27893;SDS011;15240;50.812;4.792;2023-08-06T12:40:45;9.17;;;1.60;;
27893;SDS011;15240;50.812;4.792;2023-08-06T12:43:12;6.80;;;1.70;;
27893;SDS011;15240;50.812;4.792;2023-08-06T12:45:38;6.07;;;1.53;;
27893;SDS011;15240;50.812;4.792;2023-08-06T12:48:04;8.70;;;2.10;;
27893;SDS011;15240;50.812;4.792;2023-08-06T12:50:30;6.00;;;1.43;;
27893;SDS011;15240;50.812;4.792;2023-08-06T12:52:57;6.73;;;1.90;;
27893;SDS011;15240;50.812;4.792;2023-08-06T12:55:23;6.60;;;1.70;;
27893;SDS011;15240;50.812;4.792;2023-08-06T12:57:51;8.50;;;2.10;;
27893;SDS011;15240;50.812;4.792;2023-08-06T13:00:17;7.90;;;1.73;;
27893;SDS011;15240;50.812;4.792;2023-08-06T13:02:43;6.33;;;1.90;;
27893;SDS011;15240;50.812;4.792;2023-08-06T13:05:09;7.93;;;1.93;;
27893;SDS011;15240;50.812;4.792;2023-08-06T13:07:35;6.27;;;1.70;;
27893;SDS011;15240;50.812;4.792;2023-08-06T13:10:05;8.27;;;1.90;;
27893;SDS011;15240;50.812;4.792;2023-08-06T13:12:31;8.47;;;1.47;;
27893;SDS011;15240;50.812;4.792;2023-08-06T13:14:57;5.07;;;1.37;;
27893;SDS011;15240;50.812;4.792;2023-08-06T13:17:24;6.40;;;1.60;;
27893;SDS011;15240;50.812;4.792;2023-08-06T13:19:51;8.43;;;2.03;;
27893;SDS011;15240;50.812;4.792;2023-08-06T13:22:17;6.40;;;1.60;;
27893;SDS011;15240;50.812;4.792;2023-08-06T13:24:43;7.30;;;2.20;;
27893;SDS011;15240;50.812;4.792;2023-08-06T13:27:09;7.87;;;1.67;;
27893;SDS011;15240;50.812;4.792;2023-08-06T13:29:35;5.10;;;1.30;;
27893;SDS011;15240;50.812;4.792;2023-08-06T13:32:01;4.67;;;1.30;;
27893;SDS011;15240;50.812;4.792;2023-08-06T13:34:27;7.73;;;2.07;;
27893;SDS011;15240;50.812;4.792;2023-08-06T13:36:54;5.67;;;1.57;;
27893;SDS011;15240;50.812;4.792;2023-08-06T13:39:20;9.20;;;2.03;;
27893;SDS011;15240;50.812;4.792;2023-08-06T13:41:46;5.10;;;1.73;;
27893;SDS011;15240;50.812;4.792;2023-08-06T13:44:12;9.13;;;2.10;;
27893;SDS011;15240;50.812;4.792;2023-08-06T13:46:39;9.93;;;1.80;;
27893;SDS011;15240;50.812;4.792;2023-08-06T13:49:06;6.50;;;1.47;;
27893;SDS011;15240;50.812;4.792;2023-08-06T13:51:32;4.40;;;1.37;;
27893;SDS011;15240;50.812;4.792;2023-08-06T13:54:00;7.87;;;1.93;;
27893;SDS011;15240;50.812;4.792;2023-08-06T13:56:26;6.17;;;1.57;;
27893;SDS011;15240;50.812;4.792;2023-08-06T13:58:54;5.50;;;1.60;;
27893;SDS011;15240;50.812;4.792;2023-08-06T14:01:20;6.27;;;1.50;;
27893;SDS011;15240;50.812;4.792;2023-08-06T14:03:47;7.57;;;1.40;;
27893;SDS011;15240;50.812;4.792;2023-08-06T14:06:13;5.13;;;1.27;;
27893;SDS011;15240;50.812;4.792;2023-08-06T14:08:39;5.80;;;1.60;;
27893;SDS011;15240;50.812;4.792;2023-08-06T14:11:05;6.70;;;1.37;;
27893;SDS011;15240;50.812;4.792;2023-08-06T14:13:31;6.27;;;1.87;;
27893;SDS011;15240;50.812;4.792;2023-08-06T14:15:58;7.30;;;1.90;;
27893;SDS011;15240;50.812;4.792;2023-08-06T14:18:24;3.77;;;1.17;;
27893;SDS011;15240;50.812;4.792;2023-08-06T14:20:50;5.30;;;1.50;;
27893;SDS011;15240;50.812;4.792;2023-08-06T14:23:16;6.03;;;1.23;;
27893;SDS011;15240;50.812;4.792;2023-08-06T14:25:42;7.80;;;1.87;;
27893;SDS011;15240;50.812;4.792;2023-08-06T14:28:08;7.47;;;1.60;;
27893;SDS011;15240;50.812;4.792;2023-08-06T14:30:34;9.13;;;1.60;;
27893;SDS011;15240;50.812;4.792;2023-08-06T14:33:00;13.87;;;1.97;;
27893;SDS011;15240;50.812;4.792;2023-08-06T14:35:28;6.23;;;1.70;;
27893;SDS011;15240;50.812;4.792;2023-08-06T14:37:54;7.03;;;1.63;;
27893;SDS011;15240;50.812;4.792;2023-08-06T14:40:20;5.50;;;1.60;;
27893;SDS011;15240;50.812;4.792;2023-08-06T14:42:46;10.33;;;1.90;;
27893;SDS011;15240;50.812;4.792;2023-08-06T14:45:13;9.67;;;1.97;;
27893;SDS011;15240;50.812;4.792;2023-08-06T14:47:39;9.13;;;1.90;;
27893;SDS011;15240;50.812;4.792;2023-08-06T14:50:05;9.57;;;1.97;;
27893;SDS011;15240;50.812;4.792;2023-08-06T14:52:31;8.00;;;2.03;;